sensor_id;sensor_type;location;lat;lon;timestamp;P1;durP1;ratioP1;P2;durP2;ratioP2
79668;SDS011;69136;52.614;6.976;2023-12-20T00:00:26;3.72;;;1.20;;
79668;SDS011;69136;52.614;6.976;2023-12-20T00:05:54;1.58;;;0.98;;
79668;SDS011;69136;52.614;6.976;2023-12-20T00:08:39;6.32;;;1.13;;
79668;SDS011;69136;52.614;6.976;2023-12-20T00:14:07;4.13;;;1.10;;
79668;SDS011;69136;52.614;6.976;2023-12-20T00:16:51;2.33;;;1.02;;
79668;SDS011;69136;52.614;6.976;2023-12-20T00:22:19;4.88;;;1.20;;
79668;SDS011;69136;52.614;6.976;2023-12-20T00:27:47;3.15;;;0.98;;
79668;SDS011;69136;52.614;6.976;2023-12-20T00:30:31;5.70;;;1.13;;
79668;SDS011;69136;52.614;6.976;2023-12-20T00:33:15;3.00;;;1.00;;
79668;SDS011;69136;52.614;6.976;2023-12-20T00:38:43;7.60;;;1.60;;
79668;SDS011;69136;52.614;6.976;2023-12-20T00:41:27;6.25;;;1.30;;
79668;SDS011;69136;52.614;6.976;2023-12-20T00:44:11;6.15;;;1.50;;
79668;SDS011;69136;52.614;6.976;2023-12-20T00:46:55;6.93;;;1.17;;
79668;SDS011;69136;52.614;6.976;2023-12-20T00:52:23;3.47;;;1.42;;
79668;SDS011;69136;52.614;6.976;2023-12-20T00:55:08;2.95;;;1.00;;
79668;SDS011;69136;52.614;6.976;2023-12-20T01:00:36;4.20;;;1.00;;
79668;SDS011;69136;52.614;6.976;2023-12-20T01:06:04;3.88;;;0.95;;
79668;SDS011;69136;52.614;6.976;2023-12-20T01:08:49;3.95;;;0.95;;
79668;SDS011;69136;52.614;6.976;2023-12-20T01:11:33;5.93;;;1.13;;
79668;SDS011;69136;52.614;6.976;2023-12-20T01:14:17;5.95;;;1.00;;
79668;SDS011;69136;52.614;6.976;2023-12-20T01:17:01;3.17;;;1.17;;
79668;SDS011;69136;52.614;6.976;2023-12-20T01:19:46;5.40;;;0.98;;
79668;SDS011;69136;52.614;6.976;2023-12-20T01:22:29;4.78;;;1.00;;
79668;SDS011;69136;52.614;6.976;2023-12-20T01:25:13;3.78;;;1.05;;
79668;SDS011;69136;52.614;6.976;2023-12-20T01:27:57;5.47;;;1.45;;
79668;SDS011;69136;52.614;6.976;2023-12-20T01:30:41;3.08;;;0.93;;
79668;SDS011;69136;52.614;6.976;2023-12-20T01:33:25;4.78;;;0.93;;
79668;SDS011;69136;52.614;6.976;2023-12-20T01:38:53;3.65;;;0.80;;
79668;SDS011;69136;52.614;6.976;2023-12-20T01:44:26;8.45;;;1.65;;
79668;SDS011;69136;52.614;6.976;2023-12-20T01:47:13;5.95;;;1.13;;
79668;SDS011;69136;52.614;6.976;2023-12-20T01:49:58;9.05;;;1.10;;
79668;SDS011;69136;52.614;6.976;2023-12-20T01:52:43;4.47;;;1.38;;
79668;SDS011;69136;52.614;6.976;2023-12-20T01:55:51;2.95;;;1.10;;
79668;SDS011;69136;52.614;6.976;2023-12-20T01:58:49;6.07;;;1.27;;
79668;SDS011;69136;52.614;6.976;2023-12-20T02:01:45;4.85;;;1.10;;
79668;SDS011;69136;52.614;6.976;2023-12-20T02:04:38;6.43;;;1.63;;
79668;SDS011;69136;52.614;6.976;2023-12-20T02:07:30;4.53;;;0.90;;
79668;SDS011;69136;52.614;6.976;2023-12-20T02:10:26;3.90;;;1.27;;
79668;SDS011;69136;52.614;6.976;2023-12-20T02:13:13;6.10;;;1.35;;
79668;SDS011;69136;52.614;6.976;2023-12-20T02:16:01;6.25;;;1.48;;
79668;SDS011;69136;52.614;6.976;2023-12-20T02:21:36;11.30;;;1.30;;
79668;SDS011;69136;52.614;6.976;2023-12-20T02:27:16;10.10;;;1.73;;
79668;SDS011;69136;52.614;6.976;2023-12-20T02:30:39;5.85;;;1.50;;
79668;SDS011;69136;52.614;6.976;2023-12-20T02:33:32;14.23;;;2.08;;
79668;SDS011;69136;52.614;6.976;2023-12-20T02:36:27;4.22;;;1.13;;
79668;SDS011;69136;52.614;6.976;2023-12-20T02:44:01;6.97;;;1.35;;
79668;SDS011;69136;52.614;6.976;2023-12-20T02:46:57;8.15;;;1.48;;
79668;SDS011;69136;52.614;6.976;2023-12-20T02:49:53;6.43;;;1.00;;
79668;SDS011;69136;52.614;6.976;2023-12-20T02:52:39;8.10;;;1.35;;
79668;SDS011;69136;52.614;6.976;2023-12-20T02:55:26;5.68;;;1.63;;
79668;SDS011;69136;52.614;6.976;2023-12-20T02:58:24;4.60;;;1.20;;
79668;SDS011;69136;52.614;6.976;2023-12-20T03:01:11;9.80;;;2.55;;
79668;SDS011;69136;52.614;6.976;2023-12-20T03:04:05;8.30;;;1.30;;
79668;SDS011;69136;52.614;6.976;2023-12-20T03:06:57;8.27;;;2.20;;
79668;SDS011;69136;52.614;6.976;2023-12-20T03:09:44;5.15;;;1.38;;
79668;SDS011;69136;52.614;6.976;2023-12-20T03:12:31;6.80;;;1.40;;
79668;SDS011;69136;52.614;6.976;2023-12-20T03:15:17;10.93;;;1.50;;
79668;SDS011;69136;52.614;6.976;2023-12-20T03:18:06;10.55;;;1.60;;
79668;SDS011;69136;52.614;6.976;2023-12-20T03:20:58;9.48;;;1.90;;
79668;SDS011;69136;52.614;6.976;2023-12-20T03:23:43;10.02;;;2.58;;
79668;SDS011;69136;52.614;6.976;2023-12-20T03:26:29;6.80;;;2.00;;
79668;SDS011;69136;52.614;6.976;2023-12-20T03:29:14;10.13;;;2.10;;
79668;SDS011;69136;52.614;6.976;2023-12-20T03:32:00;6.22;;;1.92;;
79668;SDS011;69136;52.614;6.976;2023-12-20T03:34:46;13.20;;;2.38;;
79668;SDS011;69136;52.614;6.976;2023-12-20T03:37:32;9.50;;;2.53;;
79668;SDS011;69136;52.614;6.976;2023-12-20T03:40:18;10.80;;;2.50;;
79668;SDS011;69136;52.614;6.976;2023-12-20T03:43:06;9.60;;;2.90;;
79668;SDS011;69136;52.614;6.976;2023-12-20T03:45:55;8.90;;;2.80;;
79668;SDS011;69136;52.614;6.976;2023-12-20T03:48:46;9.70;;;2.42;;
79668;SDS011;69136;52.614;6.976;2023-12-20T03:51:33;6.50;;;2.20;;
79668;SDS011;69136;52.614;6.976;2023-12-20T03:54:17;7.32;;;2.20;;
79668;SDS011;69136;52.614;6.976;2023-12-20T03:57:02;9.20;;;2.25;;
79668;SDS011;69136;52.614;6.976;2023-12-20T03:59:47;12.35;;;2.83;;
79668;SDS011;69136;52.614;6.976;2023-12-20T04:02:33;11.77;;;2.33;;
79668;SDS011;69136;52.614;6.976;2023-12-20T04:05:18;7.97;;;1.65;;
79668;SDS011;69136;52.614;6.976;2023-12-20T04:10:48;9.50;;;1.95;;
79668;SDS011;69136;52.614;6.976;2023-12-20T04:13:33;13.65;;;2.70;;
79668;SDS011;69136;52.614;6.976;2023-12-20T04:16:21;7.95;;;2.13;;
79668;SDS011;69136;52.614;6.976;2023-12-20T04:19:07;13.15;;;3.25;;
79668;SDS011;69136;52.614;6.976;2023-12-20T04:21:52;8.20;;;2.05;;
79668;SDS011;69136;52.614;6.976;2023-12-20T04:24:39;12.18;;;2.25;;
79668;SDS011;69136;52.614;6.976;2023-12-20T04:27:28;19.00;;;2.28;;
79668;SDS011;69136;52.614;6.976;2023-12-20T04:30:13;12.18;;;2.25;;
79668;SDS011;69136;52.614;6.976;2023-12-20T04:32:59;11.85;;;3.08;;
79668;SDS011;69136;52.614;6.976;2023-12-20T04:35:43;10.93;;;2.28;;
79668;SDS011;69136;52.614;6.976;2023-12-20T04:38:29;14.52;;;2.33;;
79668;SDS011;69136;52.614;6.976;2023-12-20T04:41:14;8.00;;;1.50;;
79668;SDS011;69136;52.614;6.976;2023-12-20T04:43:59;14.55;;;3.10;;
79668;SDS011;69136;52.614;6.976;2023-12-20T04:46:44;7.82;;;2.08;;
79668;SDS011;69136;52.614;6.976;2023-12-20T04:49:29;18.90;;;2.58;;
79668;SDS011;69136;52.614;6.976;2023-12-20T04:52:13;9.93;;;1.92;;
79668;SDS011;69136;52.614;6.976;2023-12-20T04:54:58;8.20;;;2.20;;
79668;SDS011;69136;52.614;6.976;2023-12-20T04:57:43;11.70;;;2.30;;
79668;SDS011;69136;52.614;6.976;2023-12-20T05:00:28;15.38;;;2.72;;
79668;SDS011;69136;52.614;6.976;2023-12-20T05:03:12;8.02;;;2.47;;
79668;SDS011;69136;52.614;6.976;2023-12-20T05:05:56;8.70;;;2.17;;
79668;SDS011;69136;52.614;6.976;2023-12-20T05:08:41;9.40;;;2.85;;
79668;SDS011;69136;52.614;6.976;2023-12-20T05:11:27;14.40;;;3.03;;
79668;SDS011;69136;52.614;6.976;2023-12-20T05:14:11;11.95;;;2.33;;
79668;SDS011;69136;52.614;6.976;2023-12-20T05:16:56;13.30;;;2.47;;
79668;SDS011;69136;52.614;6.976;2023-12-20T05:19:41;12.60;;;2.58;;
79668;SDS011;69136;52.614;6.976;2023-12-20T05:22:25;10.65;;;2.15;;
79668;SDS011;69136;52.614;6.976;2023-12-20T05:25:11;26.38;;;3.50;;
79668;SDS011;69136;52.614;6.976;2023-12-20T05:27:55;14.65;;;2.40;;
79668;SDS011;69136;52.614;6.976;2023-12-20T05:30:40;8.95;;;2.13;;
79668;SDS011;69136;52.614;6.976;2023-12-20T05:33:24;9.45;;;2.08;;
79668;SDS011;69136;52.614;6.976;2023-12-20T05:36:10;15.10;;;3.40;;
79668;SDS011;69136;52.614;6.976;2023-12-20T05:38:57;15.45;;;2.53;;
79668;SDS011;69136;52.614;6.976;2023-12-20T05:41:45;7.32;;;1.48;;
79668;SDS011;69136;52.614;6.976;2023-12-20T05:44:34;12.77;;;2.95;;
79668;SDS011;69136;52.614;6.976;2023-12-20T05:47:20;11.52;;;3.33;;
79668;SDS011;69136;52.614;6.976;2023-12-20T05:50:06;15.82;;;2.60;;
79668;SDS011;69136;52.614;6.976;2023-12-20T05:55:43;9.73;;;2.60;;
79668;SDS011;69136;52.614;6.976;2023-12-20T05:58:36;11.73;;;2.78;;
79668;SDS011;69136;52.614;6.976;2023-12-20T06:01:27;12.52;;;2.55;;
79668;SDS011;69136;52.614;6.976;2023-12-20T06:04:12;14.48;;;2.35;;
79668;SDS011;69136;52.614;6.976;2023-12-20T06:06:57;15.98;;;2.67;;
79668;SDS011;69136;52.614;6.976;2023-12-20T06:09:45;11.93;;;2.50;;
79668;SDS011;69136;52.614;6.976;2023-12-20T06:12:30;14.40;;;2.33;;
79668;SDS011;69136;52.614;6.976;2023-12-20T06:15:24;11.82;;;2.00;;
79668;SDS011;69136;52.614;6.976;2023-12-20T06:18:13;9.35;;;1.90;;
79668;SDS011;69136;52.614;6.976;2023-12-20T06:21:04;10.65;;;2.00;;
79668;SDS011;69136;52.614;6.976;2023-12-20T06:23:52;16.10;;;2.60;;
79668;SDS011;69136;52.614;6.976;2023-12-20T06:26:41;21.52;;;2.90;;
79668;SDS011;69136;52.614;6.976;2023-12-20T06:29:29;12.55;;;2.80;;
79668;SDS011;69136;52.614;6.976;2023-12-20T06:33:00;13.07;;;2.25;;
79668;SDS011;69136;52.614;6.976;2023-12-20T06:35:47;19.67;;;3.65;;
79668;SDS011;69136;52.614;6.976;2023-12-20T06:38:35;22.45;;;3.45;;
79668;SDS011;69136;52.614;6.976;2023-12-20T06:41:23;13.13;;;2.83;;
79668;SDS011;69136;52.614;6.976;2023-12-20T06:44:14;18.13;;;3.28;;
79668;SDS011;69136;52.614;6.976;2023-12-20T06:47:02;12.68;;;3.40;;
79668;SDS011;69136;52.614;6.976;2023-12-20T06:49:48;15.52;;;2.70;;
79668;SDS011;69136;52.614;6.976;2023-12-20T06:52:34;16.95;;;3.17;;
79668;SDS011;69136;52.614;6.976;2023-12-20T06:55:21;17.25;;;3.80;;
79668;SDS011;69136;52.614;6.976;2023-12-20T06:58:05;10.80;;;2.70;;
79668;SDS011;69136;52.614;6.976;2023-12-20T07:00:53;11.63;;;2.92;;
79668;SDS011;69136;52.614;6.976;2023-12-20T07:03:38;9.48;;;2.05;;
79668;SDS011;69136;52.614;6.976;2023-12-20T07:06:24;12.32;;;2.55;;
79668;SDS011;69136;52.614;6.976;2023-12-20T07:09:10;17.67;;;2.83;;
79668;SDS011;69136;52.614;6.976;2023-12-20T07:11:58;11.48;;;2.13;;
79668;SDS011;69136;52.614;6.976;2023-12-20T07:14:52;19.35;;;3.63;;
79668;SDS011;69136;52.614;6.976;2023-12-20T07:17:37;13.45;;;2.80;;
79668;SDS011;69136;52.614;6.976;2023-12-20T07:20:24;17.38;;;2.88;;
79668;SDS011;69136;52.614;6.976;2023-12-20T07:23:11;9.20;;;2.25;;
79668;SDS011;69136;52.614;6.976;2023-12-20T07:25:57;8.77;;;3.03;;
79668;SDS011;69136;52.614;6.976;2023-12-20T07:28:53;19.95;;;3.22;;
79668;SDS011;69136;52.614;6.976;2023-12-20T07:31:39;13.75;;;2.25;;
79668;SDS011;69136;52.614;6.976;2023-12-20T07:34:24;19.23;;;2.53;;
79668;SDS011;69136;52.614;6.976;2023-12-20T07:37:09;15.18;;;2.53;;
79668;SDS011;69136;52.614;6.976;2023-12-20T07:39:56;15.05;;;3.13;;
79668;SDS011;69136;52.614;6.976;2023-12-20T07:42:43;14.50;;;2.13;;
79668;SDS011;69136;52.614;6.976;2023-12-20T07:45:27;12.75;;;2.38;;
79668;SDS011;69136;52.614;6.976;2023-12-20T07:48:11;17.42;;;2.53;;
79668;SDS011;69136;52.614;6.976;2023-12-20T07:50:55;11.57;;;2.30;;
79668;SDS011;69136;52.614;6.976;2023-12-20T07:53:40;12.98;;;2.38;;
79668;SDS011;69136;52.614;6.976;2023-12-20T07:56:24;14.40;;;3.40;;
79668;SDS011;69136;52.614;6.976;2023-12-20T07:59:09;9.73;;;2.30;;
79668;SDS011;69136;52.614;6.976;2023-12-20T08:01:53;9.30;;;2.50;;
79668;SDS011;69136;52.614;6.976;2023-12-20T08:04:37;13.45;;;2.28;;
79668;SDS011;69136;52.614;6.976;2023-12-20T08:07:21;14.73;;;2.58;;
79668;SDS011;69136;52.614;6.976;2023-12-20T08:10:05;12.32;;;2.90;;
79668;SDS011;69136;52.614;6.976;2023-12-20T08:12:50;12.80;;;2.15;;
79668;SDS011;69136;52.614;6.976;2023-12-20T08:15:34;18.45;;;2.75;;
79668;SDS011;69136;52.614;6.976;2023-12-20T08:18:18;14.02;;;2.67;;
79668;SDS011;69136;52.614;6.976;2023-12-20T08:21:02;12.00;;;2.50;;
79668;SDS011;69136;52.614;6.976;2023-12-20T08:23:46;15.68;;;3.80;;
79668;SDS011;69136;52.614;6.976;2023-12-20T08:26:32;12.57;;;2.63;;
79668;SDS011;69136;52.614;6.976;2023-12-20T08:29:16;11.90;;;2.15;;
79668;SDS011;69136;52.614;6.976;2023-12-20T08:32:01;15.15;;;3.25;;
79668;SDS011;69136;52.614;6.976;2023-12-20T08:34:45;15.35;;;2.88;;
79668;SDS011;69136;52.614;6.976;2023-12-20T08:37:29;9.85;;;2.38;;
79668;SDS011;69136;52.614;6.976;2023-12-20T08:40:14;12.80;;;2.90;;
79668;SDS011;69136;52.614;6.976;2023-12-20T08:42:58;14.98;;;2.72;;
79668;SDS011;69136;52.614;6.976;2023-12-20T08:45:43;14.98;;;2.50;;
79668;SDS011;69136;52.614;6.976;2023-12-20T08:48:28;14.90;;;2.42;;
79668;SDS011;69136;52.614;6.976;2023-12-20T08:51:13;18.40;;;3.42;;
79668;SDS011;69136;52.614;6.976;2023-12-20T08:53:57;12.73;;;2.78;;
79668;SDS011;69136;52.614;6.976;2023-12-20T08:56:41;11.68;;;2.70;;
79668;SDS011;69136;52.614;6.976;2023-12-20T08:59:25;18.85;;;2.83;;
79668;SDS011;69136;52.614;6.976;2023-12-20T09:02:09;14.43;;;2.60;;
79668;SDS011;69136;52.614;6.976;2023-12-20T09:04:53;13.00;;;2.60;;
79668;SDS011;69136;52.614;6.976;2023-12-20T09:10:21;9.05;;;2.53;;
79668;SDS011;69136;52.614;6.976;2023-12-20T09:13:06;14.50;;;2.70;;
79668;SDS011;69136;52.614;6.976;2023-12-20T09:15:50;8.15;;;2.47;;
79668;SDS011;69136;52.614;6.976;2023-12-20T09:18:35;16.52;;;3.33;;
79668;SDS011;69136;52.614;6.976;2023-12-20T09:21:19;17.50;;;3.33;;
79668;SDS011;69136;52.614;6.976;2023-12-20T09:24:04;13.38;;;3.00;;
79668;SDS011;69136;52.614;6.976;2023-12-20T09:26:48;14.80;;;2.88;;
79668;SDS011;69136;52.614;6.976;2023-12-20T09:29:32;18.80;;;3.42;;
79668;SDS011;69136;52.614;6.976;2023-12-20T09:32:16;19.65;;;2.40;;
79668;SDS011;69136;52.614;6.976;2023-12-20T09:35:00;17.50;;;2.67;;
79668;SDS011;69136;52.614;6.976;2023-12-20T09:37:45;15.98;;;3.03;;
79668;SDS011;69136;52.614;6.976;2023-12-20T09:40:32;15.43;;;2.50;;
79668;SDS011;69136;52.614;6.976;2023-12-20T09:43:18;20.48;;;3.50;;
79668;SDS011;69136;52.614;6.976;2023-12-20T09:46:04;15.73;;;2.97;;
79668;SDS011;69136;52.614;6.976;2023-12-20T09:48:50;17.20;;;3.38;;
79668;SDS011;69136;52.614;6.976;2023-12-20T09:51:35;15.63;;;3.33;;
79668;SDS011;69136;52.614;6.976;2023-12-20T09:54:20;14.73;;;2.95;;
79668;SDS011;69136;52.614;6.976;2023-12-20T09:57:05;15.30;;;2.67;;
79668;SDS011;69136;52.614;6.976;2023-12-20T10:02:34;17.95;;;2.90;;
79668;SDS011;69136;52.614;6.976;2023-12-20T10:05:19;17.23;;;4.30;;
79668;SDS011;69136;52.614;6.976;2023-12-20T10:08:10;19.05;;;3.63;;
79668;SDS011;69136;52.614;6.976;2023-12-20T10:10:54;18.40;;;2.90;;
79668;SDS011;69136;52.614;6.976;2023-12-20T10:13:39;15.27;;;2.63;;
79668;SDS011;69136;52.614;6.976;2023-12-20T10:16:24;13.45;;;2.55;;
79668;SDS011;69136;52.614;6.976;2023-12-20T10:19:09;18.08;;;3.10;;
79668;SDS011;69136;52.614;6.976;2023-12-20T10:21:53;15.32;;;3.03;;
79668;SDS011;69136;52.614;6.976;2023-12-20T10:24:37;19.33;;;2.42;;
79668;SDS011;69136;52.614;6.976;2023-12-20T10:27:21;14.50;;;3.22;;
79668;SDS011;69136;52.614;6.976;2023-12-20T10:32:49;6.85;;;0.90;;
79668;SDS011;69136;52.614;6.976;2023-12-20T10:35:34;10.52;;;1.38;;
79668;SDS011;69136;52.614;6.976;2023-12-20T10:38:19;6.47;;;1.00;;
79668;SDS011;69136;52.614;6.976;2023-12-20T10:41:03;5.53;;;1.20;;
79668;SDS011;69136;52.614;6.976;2023-12-20T10:43:50;4.07;;;1.02;;
79668;SDS011;69136;52.614;6.976;2023-12-20T10:46:35;4.90;;;1.00;;
79668;SDS011;69136;52.614;6.976;2023-12-20T10:49:20;5.13;;;1.00;;
79668;SDS011;69136;52.614;6.976;2023-12-20T10:52:05;3.85;;;0.65;;
79668;SDS011;69136;52.614;6.976;2023-12-20T10:54:50;6.78;;;1.08;;
79668;SDS011;69136;52.614;6.976;2023-12-20T10:57:35;4.68;;;0.82;;
79668;SDS011;69136;52.614;6.976;2023-12-20T11:00:20;5.55;;;0.80;;
79668;SDS011;69136;52.614;6.976;2023-12-20T11:03:04;4.22;;;0.98;;
79668;SDS011;69136;52.614;6.976;2023-12-20T11:05:54;2.60;;;1.05;;
79668;SDS011;69136;52.614;6.976;2023-12-20T11:12:09;4.32;;;0.90;;
79668;SDS011;69136;52.614;6.976;2023-12-20T11:14:54;6.97;;;1.17;;
79668;SDS011;69136;52.614;6.976;2023-12-20T11:17:57;4.32;;;1.13;;
79668;SDS011;69136;52.614;6.976;2023-12-20T11:20:42;8.68;;;1.42;;
79668;SDS011;69136;52.614;6.976;2023-12-20T11:23:27;8.25;;;1.95;;
79668;SDS011;69136;52.614;6.976;2023-12-20T11:26:11;6.13;;;1.45;;
79668;SDS011;69136;52.614;6.976;2023-12-20T11:37:52;6.60;;;1.15;;
79668;SDS011;69136;52.614;6.976;2023-12-20T11:40:37;8.07;;;2.03;;
79668;SDS011;69136;52.614;6.976;2023-12-20T11:46:37;7.50;;;2.15;;
79668;SDS011;69136;52.614;6.976;2023-12-20T11:49:23;5.03;;;1.00;;
79668;SDS011;69136;52.614;6.976;2023-12-20T11:52:07;7.05;;;1.25;;
79668;SDS011;69136;52.614;6.976;2023-12-20T11:57:36;5.20;;;1.10;;
79668;SDS011;69136;52.614;6.976;2023-12-20T12:00:20;6.28;;;1.77;;
79668;SDS011;69136;52.614;6.976;2023-12-20T12:03:04;7.07;;;1.33;;
79668;SDS011;69136;52.614;6.976;2023-12-20T12:05:49;5.90;;;1.55;;
79668;SDS011;69136;52.614;6.976;2023-12-20T12:08:33;3.42;;;0.88;;
79668;SDS011;69136;52.614;6.976;2023-12-20T12:14:01;8.95;;;1.10;;
79668;SDS011;69136;52.614;6.976;2023-12-20T12:16:46;6.03;;;1.05;;
79668;SDS011;69136;52.614;6.976;2023-12-20T12:19:30;8.85;;;1.23;;
79668;SDS011;69136;52.614;6.976;2023-12-20T12:22:19;8.02;;;1.05;;
79668;SDS011;69136;52.614;6.976;2023-12-20T12:25:13;5.38;;;1.33;;
79668;SDS011;69136;52.614;6.976;2023-12-20T12:27:58;7.05;;;1.38;;
79668;SDS011;69136;52.614;6.976;2023-12-20T12:30:43;6.93;;;1.33;;
79668;SDS011;69136;52.614;6.976;2023-12-20T12:36:12;8.50;;;1.45;;
79668;SDS011;69136;52.614;6.976;2023-12-20T12:38:56;5.50;;;0.93;;
79668;SDS011;69136;52.614;6.976;2023-12-20T12:41:41;5.05;;;0.70;;
79668;SDS011;69136;52.614;6.976;2023-12-20T12:44:26;6.18;;;1.00;;
79668;SDS011;69136;52.614;6.976;2023-12-20T12:47:10;3.78;;;0.82;;
79668;SDS011;69136;52.614;6.976;2023-12-20T12:52:38;3.65;;;0.90;;
79668;SDS011;69136;52.614;6.976;2023-12-20T12:55:22;5.95;;;1.02;;
79668;SDS011;69136;52.614;6.976;2023-12-20T12:58:06;8.40;;;1.10;;
79668;SDS011;69136;52.614;6.976;2023-12-20T13:00:50;7.60;;;1.20;;
79668;SDS011;69136;52.614;6.976;2023-12-20T13:03:35;5.68;;;1.05;;
79668;SDS011;69136;52.614;6.976;2023-12-20T13:06:19;4.18;;;1.00;;
79668;SDS011;69136;52.614;6.976;2023-12-20T13:09:03;7.70;;;1.30;;
79668;SDS011;69136;52.614;6.976;2023-12-20T13:11:48;5.47;;;1.25;;
79668;SDS011;69136;52.614;6.976;2023-12-20T13:14:33;6.45;;;1.08;;
79668;SDS011;69136;52.614;6.976;2023-12-20T13:17:18;5.20;;;1.00;;
79668;SDS011;69136;52.614;6.976;2023-12-20T13:22:46;6.72;;;0.80;;
79668;SDS011;69136;52.614;6.976;2023-12-20T13:28:15;7.72;;;1.58;;
79668;SDS011;69136;52.614;6.976;2023-12-20T13:30:59;9.15;;;1.17;;
79668;SDS011;69136;52.614;6.976;2023-12-20T13:33:44;7.97;;;1.27;;
79668;SDS011;69136;52.614;6.976;2023-12-20T13:36:28;3.97;;;0.90;;
79668;SDS011;69136;52.614;6.976;2023-12-20T13:39:13;8.90;;;1.17;;
79668;SDS011;69136;52.614;6.976;2023-12-20T13:41:57;8.75;;;1.10;;
79668;SDS011;69136;52.614;6.976;2023-12-20T13:44:50;7.93;;;1.98;;
79668;SDS011;69136;52.614;6.976;2023-12-20T13:47:34;9.52;;;1.70;;
79668;SDS011;69136;52.614;6.976;2023-12-20T13:50:19;5.60;;;1.15;;
79668;SDS011;69136;52.614;6.976;2023-12-20T13:53:03;6.30;;;1.25;;
79668;SDS011;69136;52.614;6.976;2023-12-20T13:55:48;6.90;;;1.45;;
79668;SDS011;69136;52.614;6.976;2023-12-20T13:58:33;6.15;;;1.02;;
79668;SDS011;69136;52.614;6.976;2023-12-20T14:01:17;5.50;;;0.82;;
79668;SDS011;69136;52.614;6.976;2023-12-20T14:04:02;5.60;;;1.15;;
79668;SDS011;69136;52.614;6.976;2023-12-20T14:06:46;5.65;;;1.00;;
79668;SDS011;69136;52.614;6.976;2023-12-20T14:09:31;5.35;;;0.90;;
79668;SDS011;69136;52.614;6.976;2023-12-20T14:12:15;9.57;;;5.03;;
79668;SDS011;69136;52.614;6.976;2023-12-20T14:17:44;5.95;;;1.02;;
79668;SDS011;69136;52.614;6.976;2023-12-20T14:20:28;4.65;;;0.70;;
79668;SDS011;69136;52.614;6.976;2023-12-20T14:23:13;7.15;;;1.13;;
79668;SDS011;69136;52.614;6.976;2023-12-20T14:26:00;24.33;;;13.35;;
79668;SDS011;69136;52.614;6.976;2023-12-20T14:28:45;11.55;;;2.72;;
79668;SDS011;69136;52.614;6.976;2023-12-20T14:34:13;6.47;;;2.53;;
79668;SDS011;69136;52.614;6.976;2023-12-20T14:36:58;4.78;;;1.90;;
79668;SDS011;69136;52.614;6.976;2023-12-20T14:39:41;7.82;;;1.80;;
79668;SDS011;69136;52.614;6.976;2023-12-20T14:45:09;4.47;;;1.73;;
79668;SDS011;69136;52.614;6.976;2023-12-20T14:47:57;8.70;;;1.70;;
79668;SDS011;69136;52.614;6.976;2023-12-20T14:50:42;4.43;;;1.40;;
79668;SDS011;69136;52.614;6.976;2023-12-20T14:53:27;6.30;;;2.13;;
79668;SDS011;69136;52.614;6.976;2023-12-20T14:56:11;10.40;;;2.22;;
79668;SDS011;69136;52.614;6.976;2023-12-20T14:58:55;5.85;;;1.58;;
79668;SDS011;69136;52.614;6.976;2023-12-20T15:01:40;8.98;;;2.03;;
79668;SDS011;69136;52.614;6.976;2023-12-20T15:04:24;7.05;;;2.20;;
79668;SDS011;69136;52.614;6.976;2023-12-20T15:07:12;7.85;;;2.50;;
79668;SDS011;69136;52.614;6.976;2023-12-20T15:09:56;6.95;;;2.10;;
79668;SDS011;69136;52.614;6.976;2023-12-20T15:12:40;8.55;;;1.63;;
79668;SDS011;69136;52.614;6.976;2023-12-20T15:18:08;5.43;;;2.00;;
79668;SDS011;69136;52.614;6.976;2023-12-20T15:20:52;9.77;;;2.45;;
79668;SDS011;69136;52.614;6.976;2023-12-20T15:23:36;8.45;;;2.13;;
79668;SDS011;69136;52.614;6.976;2023-12-20T15:26:21;13.77;;;2.50;;
79668;SDS011;69136;52.614;6.976;2023-12-20T15:29:05;8.95;;;2.10;;
79668;SDS011;69136;52.614;6.976;2023-12-20T15:31:50;13.00;;;2.80;;
79668;SDS011;69136;52.614;6.976;2023-12-20T15:34:34;9.23;;;2.15;;
79668;SDS011;69136;52.614;6.976;2023-12-20T15:40:01;7.68;;;1.98;;
79668;SDS011;69136;52.614;6.976;2023-12-20T15:42:45;13.82;;;2.33;;
79668;SDS011;69136;52.614;6.976;2023-12-20T15:48:13;7.95;;;1.98;;
79668;SDS011;69136;52.614;6.976;2023-12-20T15:51:05;15.77;;;5.22;;
79668;SDS011;69136;52.614;6.976;2023-12-20T15:53:49;14.70;;;4.35;;
79668;SDS011;69136;52.614;6.976;2023-12-20T15:56:34;14.70;;;2.90;;
79668;SDS011;69136;52.614;6.976;2023-12-20T15:59:18;13.13;;;2.47;;
79668;SDS011;69136;52.614;6.976;2023-12-20T16:02:03;11.82;;;2.35;;
79668;SDS011;69136;52.614;6.976;2023-12-20T16:04:47;13.80;;;2.33;;
79668;SDS011;69136;52.614;6.976;2023-12-20T16:10:15;10.82;;;3.15;;
79668;SDS011;69136;52.614;6.976;2023-12-20T16:15:43;12.02;;;2.85;;
79668;SDS011;69136;52.614;6.976;2023-12-20T16:18:27;14.30;;;2.88;;
79668;SDS011;69136;52.614;6.976;2023-12-20T16:21:11;13.27;;;2.80;;
79668;SDS011;69136;52.614;6.976;2023-12-20T16:26:39;8.60;;;1.85;;
79668;SDS011;69136;52.614;6.976;2023-12-20T16:29:24;10.95;;;1.77;;
79668;SDS011;69136;52.614;6.976;2023-12-20T16:32:08;10.73;;;2.70;;
79668;SDS011;69136;52.614;6.976;2023-12-20T16:37:36;13.20;;;2.13;;
79668;SDS011;69136;52.614;6.976;2023-12-20T16:40:21;14.02;;;2.63;;
79668;SDS011;69136;52.614;6.976;2023-12-20T16:43:08;10.82;;;2.40;;
79668;SDS011;69136;52.614;6.976;2023-12-20T16:48:35;12.05;;;2.95;;
79668;SDS011;69136;52.614;6.976;2023-12-20T16:51:20;52.97;;;17.95;;
79668;SDS011;69136;52.614;6.976;2023-12-20T16:54:05;17.83;;;7.25;;
79668;SDS011;69136;52.614;6.976;2023-12-20T16:56:49;19.60;;;3.40;;
79668;SDS011;69136;52.614;6.976;2023-12-20T16:59:34;12.05;;;4.40;;
79668;SDS011;69136;52.614;6.976;2023-12-20T17:05:02;6.78;;;2.10;;
79668;SDS011;69136;52.614;6.976;2023-12-20T17:07:45;12.27;;;2.47;;
79668;SDS011;69136;52.614;6.976;2023-12-20T17:13:13;13.00;;;2.95;;
79668;SDS011;69136;52.614;6.976;2023-12-20T17:15:57;14.95;;;3.50;;
79668;SDS011;69136;52.614;6.976;2023-12-20T17:21:25;8.82;;;2.58;;
79668;SDS011;69136;52.614;6.976;2023-12-20T17:24:11;13.70;;;3.22;;
79668;SDS011;69136;52.614;6.976;2023-12-20T17:26:56;10.75;;;3.08;;
79668;SDS011;69136;52.614;6.976;2023-12-20T17:29:41;12.52;;;3.65;;
79668;SDS011;69136;52.614;6.976;2023-12-20T17:32:25;13.05;;;4.00;;
79668;SDS011;69136;52.614;6.976;2023-12-20T17:35:10;12.93;;;3.28;;
79668;SDS011;69136;52.614;6.976;2023-12-20T17:40:38;16.20;;;3.05;;
79668;SDS011;69136;52.614;6.976;2023-12-20T17:43:24;10.32;;;3.20;;
79668;SDS011;69136;52.614;6.976;2023-12-20T17:46:09;10.90;;;3.60;;
79668;SDS011;69136;52.614;6.976;2023-12-20T17:51:36;8.32;;;2.63;;
79668;SDS011;69136;52.614;6.976;2023-12-20T17:54:20;13.13;;;3.67;;
79668;SDS011;69136;52.614;6.976;2023-12-20T17:57:04;11.55;;;3.22;;
79668;SDS011;69136;52.614;6.976;2023-12-20T17:59:49;12.55;;;3.80;;
79668;SDS011;69136;52.614;6.976;2023-12-20T18:02:33;30.75;;;12.18;;
79668;SDS011;69136;52.614;6.976;2023-12-20T18:08:02;68.07;;;27.75;;
79668;SDS011;69136;52.614;6.976;2023-12-20T18:10:47;59.08;;;23.02;;
79668;SDS011;69136;52.614;6.976;2023-12-20T18:16:14;30.60;;;9.82;;
79668;SDS011;69136;52.614;6.976;2023-12-20T18:18:59;47.97;;;16.17;;
79668;SDS011;69136;52.614;6.976;2023-12-20T18:21:43;22.60;;;6.57;;
79668;SDS011;69136;52.614;6.976;2023-12-20T18:24:27;29.40;;;9.88;;
79668;SDS011;69136;52.614;6.976;2023-12-20T18:27:11;27.40;;;12.35;;
79668;SDS011;69136;52.614;6.976;2023-12-20T18:29:54;15.25;;;9.35;;
79668;SDS011;69136;52.614;6.976;2023-12-20T18:35:22;11.05;;;3.85;;
79668;SDS011;69136;52.614;6.976;2023-12-20T18:40:50;13.13;;;4.90;;
79668;SDS011;69136;52.614;6.976;2023-12-20T18:43:34;10.57;;;4.78;;
79668;SDS011;69136;52.614;6.976;2023-12-20T18:46:18;9.77;;;3.67;;
79668;SDS011;69136;52.614;6.976;2023-12-20T18:49:03;10.77;;;3.88;;